This is the latest recevied weather packets stored in our database for station/object K5NOC-12. If no packets are shown the sender has not sent any weather packets the latest 10 day(s).
| Time | Temp. | Humidity | Pressure | Rain* | Wind** | Luminosity | Snow |
|---|---|---|---|---|---|---|---|
| 1787974432 | 27.22° C | 44% | 1020.6 hPa | 0 mm | - | - | - |
| 1787973532 | 27.78° C | 43% | 1020.5 hPa | 0 mm | - | - | - |
| 1787972632 | 27.78° C | 43% | 1020.3 hPa | 0 mm | - | - | - |
| 1787971732 | 28.33° C | 41% | 1020 hPa | 0 mm | - | - | - |
| 1787970832 | 28.89° C | 40% | 1019.7 hPa | 0 mm | - | - | - |
| 1787969932 | 29.44° C | 40% | 1019.5 hPa | 0 mm | - | - | - |
| 1787969032 | 29.44° C | 39% | 1019.3 hPa | 0 mm | - | - | - |
| 1787968131 | 30° C | 38% | 1019.2 hPa | 0 mm | - | - | - |
| 1787967231 | 30.56° C | 38% | 1019.2 hPa | 0 mm | - | - | - |
| 1787966331 | 31.11° C | 37% | 1019.1 hPa | 0 mm | - | - | - |
| 1787965431 | 31.67° C | 35% | 1019.1 hPa | 0 mm | - | - | - |
| 1787964531 | 32.22° C | 33% | 1019.1 hPa | 0 mm | - | - | - |
| 1787963631 | 32.22° C | 32% | 1019 hPa | 0 mm | - | - | - |
| 1787962731 | 32.78° C | 32% | 1019.1 hPa | 0 mm | - | - | - |
| 1787961831 | 33.33° C | 32% | 1019.1 hPa | 0 mm | - | - | - |
| 1787960931 | 33.33° C | 33% | 1019.3 hPa | 0 mm | - | - | - |
| 1787960030 | 33.33° C | 33% | 1019.3 hPa | 0 mm | - | - | - |
| 1787959130 | 33.33° C | 32% | 1019.4 hPa | 0 mm | - | - | - |
| 1787958231 | 33.33° C | 34% | 1019.6 hPa | 0 mm | - | - | - |
| 1787957330 | 33.89° C | 33% | 1019.6 hPa | 0 mm | - | - | - |
| 1787956430 | 33.33° C | 33% | 1019.9 hPa | 0 mm | - | - | - |
| 1787955530 | 33.33° C | 34% | 1020 hPa | 0 mm | - | - | - |
| 1787954630 | 33.33° C | 35% | 1020.1 hPa | 0 mm | - | - | - |
| 1787953730 | 32.78° C | 35% | 1020.3 hPa | 0 mm | - | - | - |
| 1787952829 | 32.78° C | 36% | 1020.5 hPa | 0 mm | - | - | - |
* Rain latest hour (hover to see other rain measurements)
** Current wind speed in m/s (hover to see current wind gust speed)